CDT,Max TemperatureF,Mean TemperatureF,Min TemperatureF,Max Dew PointF,MeanDew PointF,Min DewpointF,Max Humidity, Mean Humidity, Min Humidity, Max Sea Level PressureIn, Mean Sea Level PressureIn, Min Sea Level PressureIn, Max VisibilityMiles, Mean VisibilityMiles, Min VisibilityMiles, Max Wind SpeedMPH, Mean Wind SpeedMPH, Max Gust SpeedMPH,PrecipitationIn, CloudCover, Events, WindDirDegrees
2013-3-1,62,44,25,35,27,21,88,58,27,30.32,30.25,30.17,10,10,10,26,7,32,T,1,Rain,340
2013-3-2,58,44,30,30,24,19,85,54,23,30.45,30.34,30.26,10,9,7,21,10,26,0.00,0,,345
2013-3-3,74,53,31,41,31,25,75,49,23,30.26,30.06,29.86,10,10,10,26,15,35,0.00,0,,182
2013-3-4,81,68,54,49,46,41,77,54,30,29.84,29.73,29.64,10,10,10,23,16,33,0.00,0,,180
2013-3-5,67,48,29,41,22,12,60,38,16,30.38,30.24,29.84,10,10,8,36,18,46,0.00,0,,342
2013-3-6,63,43,23,29,21,14,75,46,16,30.48,30.34,30.21,10,10,10,14,5,17,0.00,0,,38
2013-3-7,71,54,37,46,36,24,59,44,28,30.25,30.17,30.10,10,10,9,21,11,25,0.00,0,,156
2013-3-8,64,60,55,59,53,46,90,79,67,30.19,30.09,30.01,10,6,2,21,12,25,0.02,7,,144
2013-3-9,71,65,59,63,59,55,90,82,73,29.98,29.80,29.65,9,5,0,25,14,31,1.33,8,Fog-Rain-Thunderstorm,172
2013-3-10,61,48,35,58,41,32,77,59,40,30.11,29.92,29.74,10,9,2,25,13,32,0.28,4,Rain-Snow-Thunderstorm,306
2013-3-11,63,48,33,35,26,20,75,48,21,30.16,30.09,30.02,10,10,9,20,9,26,0.00,0,Snow,325
2013-3-12,70,53,35,38,32,28,82,55,28,30.30,30.14,30.06,10,10,10,16,8,22,0.00,0,,129
2013-3-13,71,54,37,39,36,33,79,54,28,30.45,30.36,30.31,10,10,10,14,6,17,0.00,0,,92
2013-3-14,77,61,45,47,43,37,77,55,33,30.37,30.28,30.19,10,10,10,24,12,29,0.00,0,,173
2013-3-15,81,67,53,53,48,41,89,58,27,30.20,30.09,29.95,10,10,8,24,15,32,0.00,0,,185
2013-3-16,82,70,57,59,54,50,86,61,36,29.93,29.82,29.70,10,10,7,29,19,37,0.00,0,,176
2013-3-17,80,70,59,60,58,52,81,65,48,29.79,29.72,29.64,10,10,9,23,9,29,0.00,6,,189
2013-3-18,77,65,52,64,55,43,93,66,38,29.97,29.80,29.69,10,7,3,23,11,26,0.00,3,,349
2013-3-19,73,56,38,50,44,37,83,64,44,30.10,29.99,29.93,10,10,6,29,8,35,0.14,3,Rain-Thunderstorm,45
2013-3-20,69,57,45,49,39,32,89,57,25,30.28,30.16,30.04,10,10,5,18,9,24,0.04,1,Rain,48
2013-3-21,73,62,50,58,48,34,78,64,50,30.03,29.79,29.58,10,10,10,30,16,37,0.00,5,,160
2013-3-22,68,58,48,63,53,43,93,75,56,29.82,29.71,29.58,10,7,5,21,13,26,0.00,6,,297
2013-3-23,63,56,48,54,48,44,93,83,72,29.82,29.75,29.65,8,5,2,22,9,29,0.02,8,,29
2013-3-24,55,46,36,52,35,22,89,59,28,30.19,30.00,29.79,10,8,1,30,17,39,T,4,Rain,339
2013-3-25,58,44,30,23,21,18,63,43,23,30.42,30.32,30.19,10,10,10,21,10,26,0.00,0,,355
2013-3-26,60,41,22,28,22,18,88,56,23,30.52,30.41,30.31,10,10,7,12,4,,0.00,0,,184
2013-3-27,72,55,38,46,35,24,70,49,28,30.32,30.23,30.12,10,10,8,25,15,35,0.00,0,,165
2013-3-28,74,63,52,56,52,46,83,68,53,30.22,30.15,30.09,10,10,10,21,13,25,0.00,5,,160
2013-3-29,76,67,58,58,56,54,87,70,53,30.20,30.13,30.05,10,9,5,20,13,24,0.00,7,,165
2013-3-30,80,71,61,61,59,55,90,70,49,30.09,29.99,29.88,10,10,7,23,12,29,T,4,Rain,182
2013-3-31,80,68,55,63,59,53,87,66,45,29.98,29.90,29.85,10,8,5,18,10,24,0.00,3,,108